Evansville, Illinois
Current Conditions -  °F | °C
As of 4:35 PM on Wednesday 22 Oct 2014 (Local Time) from KSAR Reporting Station
Haze Haze  
Wind Chill: 63°   Ceiling: 200
Heat Index: 63°   Visibility: 0.25mi
Dew Point: 41°   Wind: 7mph
Humidity: 45%   Direction: 80°E
Pressure: 30.24"   Gusts: NA
Location:  38.09°N, 89.94°W
Report Text: KSAR 222135Z AUTO 08006KT 1/4SM HZ VV002 17/05 A3024 RMK AO2 T01700050
Loading
Personal Weather Stations






























Interactive Weather Map
Tropical Storm Tracking
New forecast layout! Learn more

10-Day Weather Forecast

Advertisements
Track Severe Weather on mobile